KTOP/TOP METAR and TAF weather

Enter ICAO airport designator
Station Type Date Time Source
KTOP METAR 2022/01/29 13:53 UTC NOAA

KTOP 291353Z 22005KT 10SM CLR M03/M08 A3009 RMK AO2 SLP199 T10331083


Station Type Date Time Source
KTOP Decoded METAR 2022/01/29 13:53 UTC NOAA

TOPEKA BILLARD MUNICIPAL AIRPORT, KS, United States (KTOP) 39-04N 95-38W 268M
Jan 29, 2022 - 08:53 AM EST / 2022.01.29 1353 UTC
Wind: from the SW (220 degrees) at 6 MPH (5 KT):0
Visibility: 10 mile(s):0
Sky conditions: clear
Temperature: 26.1 F (-3.3 C)
Windchill: 19 F (-7 C):1
Dew Point: 17.1 F (-8.3 C)
Relative Humidity: 68%
Pressure (altimeter): 30.09 in. Hg (1018 hPa)
ob: KTOP 291353Z 22005KT 10SM CLR M03/M08 A3009 RMK AO2 SLP199 T10331083
cycle: 14

Station Type Date Time Source
KTOP TAF 2022/01/29 12:22 UTC NOAA

TAF KTOP 291120Z 2912/3012 23006KT P6SM FEW250
FM291800 28011KT P6SM SKC
FM292300 30004KT P6SM SKC

Example: see airport list